Time;durP1;ratioP1;P1;durP2;ratioP2;P2;SDS_P1;SDS_P2;PMS_P1;PMS_P2;Temp;Humidity;BMP_temperature;BMP_pressure;BME280_temperature;BME280_humidity;BME280_pressure;Samples;Min_cycle;Max_cycle;Signal;HPM_P1;HPM_P2
2023/03/24 00:02:16;;;;;;;12.52;8.85;;;;;;;9.07;89.50;100669.13;5026010;28;20047;-73
2023/03/24 00:04:42;;;;;;;12.18;8.43;;;;;;;8.91;90.60;100669.63;5016374;28;20050;-74
2023/03/24 00:07:13;;;;;;;14.52;8.75;;;;;;;8.77;91.63;100672.53;5028326;28;20037;-73
2023/03/24 00:09:40;;;;;;;11.68;7.93;;;;;;;8.65;92.42;100665.75;5021844;28;20029;-73
2023/03/24 00:12:08;;;;;;;14.23;8.25;;;;;;;8.57;93.08;100668.97;5016844;28;20045;-73
2023/03/24 00:14:37;;;;;;;10.63;7.63;;;;;;;8.51;93.62;100673.84;5016920;28;20025;-73
2023/03/24 00:17:04;;;;;;;12.70;8.15;;;;;;;8.42;94.04;100667.66;5016322;28;20498;-74
2023/03/24 00:19:29;;;;;;;9.88;8.18;;;;;;;8.32;94.63;100664.13;5029800;28;20038;-73
2023/03/24 00:21:55;;;;;;;12.60;9.65;;;;;;;8.27;95.18;100659.31;5033857;28;20025;-73
2023/03/24 00:24:20;;;;;;;13.63;8.65;;;;;;;8.24;95.65;100659.56;5027621;28;22432;-73
2023/03/24 00:26:47;;;;;;;12.77;8.57;;;;;;;8.16;95.57;100655.94;5037688;28;20025;-73
2023/03/24 00:29:13;;;;;;;12.82;8.32;;;;;;;8.09;96.39;100647.81;5023209;28;20116;-73
2023/03/24 00:31:39;;;;;;;12.43;8.55;;;;;;;8.09;96.38;100655.63;5027306;28;20029;-73
2023/03/24 00:34:09;;;;;;;11.10;8.10;;;;;;;8.09;96.50;100652.19;5028460;28;20060;-73
2023/03/24 00:36:35;;;;;;;9.77;7.72;;;;;;;8.08;96.72;100653.13;5028137;28;20069;-73
2023/03/24 00:39:03;;;;;;;11.40;8.10;;;;;;;8.07;96.83;100649.72;5012245;28;21763;-74
2023/03/24 00:41:29;;;;;;;13.60;7.80;;;;;;;8.02;97.17;100646.69;5012229;28;20105;-73
2023/03/24 00:43:57;;;;;;;10.23;8.55;;;;;;;7.99;97.34;100642.59;5018035;28;20113;-73
2023/03/24 00:46:26;;;;;;;10.82;8.85;;;;;;;7.98;97.37;100640.09;5012772;28;20041;-73
2023/03/24 00:49:00;;;;;;;13.13;9.32;;;;;;;7.96;97.87;100639.41;5019880;28;20033;-73
2023/03/24 00:51:30;;;;;;;13.95;9.25;;;;;;;7.97;97.65;100635.88;5026656;28;20479;-73
2023/03/24 00:53:56;;;;;;;13.35;9.20;;;;;;;7.94;97.64;100646.50;5020901;28;20132;-73
2023/03/24 00:56:23;;;;;;;14.20;9.73;;;;;;;7.92;98.18;100643.19;5022812;28;20124;-73
2023/03/24 00:58:49;;;;;;;12.02;8.93;;;;;;;7.88;98.58;100641.78;5022142;28;20037;-73
2023/03/24 01:01:14;;;;;;;12.63;8.65;;;;;;;7.85;98.95;100637.66;5014649;28;20120;-73
2023/03/24 01:03:46;;;;;;;12.50;9.00;;;;;;;7.82;99.21;100634.50;5017866;28;20045;-73
2023/03/24 01:06:12;;;;;;;16.67;9.18;;;;;;;7.76;99.50;100634.97;5024236;28;20092;-73
2023/03/24 01:08:38;;;;;;;13.57;9.05;;;;;;;7.71;100.00;100626.75;5026863;28;20033;-73
2023/03/24 01:11:05;;;;;;;13.45;9.23;;;;;;;7.65;100.00;100634.06;5022514;28;20125;-73
2023/03/24 01:13:30;;;;;;;12.60;8.57;;;;;;;7.62;100.00;100629.13;5023238;28;20204;-73
2023/03/24 01:15:57;;;;;;;9.32;6.80;;;;;;;7.83;99.97;100629.19;5018026;28;20158;-74
2023/03/24 01:18:23;;;;;;;10.05;7.18;;;;;;;7.96;98.54;100629.84;5013763;28;20038;-73
2023/03/24 01:20:49;;;;;;;10.90;6.75;;;;;;;7.91;98.41;100621.63;5031335;28;20041;-73
2023/03/24 01:23:19;;;;;;;13.43;6.70;;;;;;;7.83;98.77;100629.19;5029158;28;20044;-73
2023/03/24 01:25:46;;;;;;;8.63;6.45;;;;;;;7.76;99.17;100622.00;5029783;28;20056;-73
2023/03/24 01:28:13;;;;;;;13.07;6.43;;;;;;;7.73;99.89;100617.06;5015866;28;20481;-73
2023/03/24 01:30:39;;;;;;;7.88;5.28;;;;;;;8.01;98.49;100624.28;5031734;28;20029;-73
2023/03/24 01:33:05;;;;;;;6.72;4.85;;;;;;;8.02;97.34;100620.75;5027905;28;20029;-73
2023/03/24 01:35:31;;;;;;;8.43;4.45;;;;;;;7.86;97.71;100628.13;5028358;28;20037;-73
2023/03/24 01:37:57;;;;;;;8.85;5.93;;;;;;;7.75;99.68;100618.59;5021018;28;20060;-73
2023/03/24 01:40:35;;;;;;;7.65;5.93;;;;;;;7.89;99.90;100620.09;5024577;28;20116;-73
2023/03/24 01:43:00;;;;;;;12.65;5.65;;;;;;;8.10;98.04;100626.13;5028514;28;20502;-73
2023/03/24 01:46:11;;;;;;;8.30;4.70;;;;;;;8.23;98.03;100621.59;5022847;28;20087;-73
2023/03/24 01:48:42;;;;;;;10.65;5.97;;;;;;;8.28;96.62;100622.03;5005908;28;20049;-73
2023/03/24 01:51:29;;;;;;;8.82;5.65;;;;;;;8.32;96.64;100622.59;5034747;28;20110;-73
2023/03/24 01:54:03;;;;;;;6.38;4.32;;;;;;;8.22;96.11;100630.31;5022785;28;20038;-73
2023/03/24 01:56:34;;;;;;;8.60;4.95;;;;;;;8.07;97.43;100618.56;5016576;28;20049;-73
2023/03/24 01:59:05;;;;;;;11.98;5.38;;;;;;;8.13;97.78;100615.50;5027570;28;20390;-73
2023/03/24 02:01:31;;;;;;;7.68;5.20;;;;;;;8.29;96.52;100608.09;5027340;28;20029;-73
2023/03/24 02:03:58;;;;;;;11.52;4.97;;;;;;;8.45;95.17;100601.69;5018918;28;20494;-73
2023/03/24 02:06:25;;;;;;;7.50;4.45;;;;;;;8.54;94.37;100590.50;5022579;28;20037;-73
2023/03/24 02:08:58;;;;;;;9.15;4.90;;;;;;;8.68;93.18;100594.53;5024586;28;20029;-73
2023/03/24 02:11:28;;;;;;;5.18;4.22;;;;;;;8.79;92.40;100586.69;5030611;28;20376;-73
2023/03/24 02:13:53;;;;;;;12.15;4.55;;;;;;;8.89;91.46;100587.53;5038872;28;20466;-73
2023/03/24 02:16:34;;;;;;;6.22;4.18;;;;;;;8.97;90.77;100585.13;5028683;28;20048;-73
2023/03/24 02:19:22;;;;;;;9.73;3.97;;;;;;;8.89;90.75;100577.97;5028470;28;20034;-73
2023/03/24 02:22:34;;;;;;;8.02;5.00;;;;;;;8.64;92.45;100571.44;5025350;28;20045;-73
2023/03/24 02:25:05;;;;;;;9.27;5.18;;;;;;;8.40;94.21;100576.09;5021114;28;20583;-73
2023/03/24 02:27:50;;;;;;;5.72;3.80;;;;;;;8.28;95.19;100564.09;5024538;28;20397;-73
2023/03/24 02:30:15;;;;;;;8.13;4.63;;;;;;;8.14;96.44;100567.81;5034179;28;20398;-73
2023/03/24 02:33:08;;;;;;;6.32;5.13;;;;;;;8.04;96.80;100566.94;5025053;28;20029;-73
2023/03/24 02:35:54;;;;;;;11.30;6.07;;;;;;;7.97;97.08;100566.63;5026994;28;20041;-73
2023/03/24 02:38:20;;;;;;;;;;;;;;;7.93;97.95;100562.66;5027928;28;20083;-73
2023/03/24 02:40:57;;;;;;;8.47;5.97;;;;;;;7.98;96.61;100564.88;5024132;28;19921;-73
2023/03/24 02:43:41;;;;;;;9.57;6.57;;;;;;;7.95;96.30;100555.56;5023731;28;20045;-73
2023/03/24 02:46:21;;;;;;;9.13;5.80;;;;;;;7.85;97.06;100565.03;5018754;28;20186;-73
2023/03/24 02:49:08;;;;;;;9.65;7.03;;;;;;;7.92;97.27;100565.38;5023854;28;20041;-73
2023/03/24 02:51:38;;;;;;;12.23;8.35;;;;;;;8.07;96.60;100563.25;5026694;28;20034;-74
2023/03/24 02:54:10;;;;;;;11.77;7.55;;;;;;;8.09;95.98;100563.97;5026524;28;20089;-73
2023/03/24 02:56:35;;;;;;;10.15;6.90;;;;;;;7.99;96.31;100556.97;5032501;28;20470;-74
2023/03/24 02:59:06;;;;;;;8.98;6.88;;;;;;;7.90;96.71;100557.69;5024597;28;20033;-73
2023/03/24 03:01:42;;;;;;;12.98;8.60;;;;;;;7.86;97.39;100555.47;5027580;28;20072;-73
2023/03/24 03:04:12;;;;;;;11.00;9.05;;;;;;;7.82;97.52;100549.72;5029587;28;20433;-74
2023/03/24 03:06:42;;;;;;;10.63;8.57;;;;;;;7.82;97.57;100565.28;5032914;28;20083;-72
2023/03/24 03:09:14;;;;;;;9.70;8.15;;;;;;;7.78;98.28;100563.06;5030571;28;20032;-74
2023/03/24 03:11:45;;;;;;;15.13;8.98;;;;;;;7.73;98.11;100555.66;5024750;28;20065;-74
2023/03/24 03:14:16;;;;;;;13.02;9.65;;;;;;;7.68;98.57;100554.38;5031659;28;20129;-74
2023/03/24 03:16:52;;;;;;;9.88;7.97;;;;;;;7.63;99.08;100552.16;5028240;28;20029;-74
2023/03/24 03:19:27;;;;;;;11.00;9.07;;;;;;;7.63;99.27;100554.72;5019481;28;20437;-74
2023/03/24 03:21:55;;;;;;;12.05;8.65;;;;;;;7.62;99.18;100559.09;5059229;28;20033;-74
2023/03/24 03:24:26;;;;;;;10.80;8.45;;;;;;;7.57;99.37;100556.03;5028812;28;20112;-74
2023/03/24 03:27:08;;;;;;;11.45;9.43;;;;;;;7.54;99.76;100553.72;5025426;28;20029;-74
2023/03/24 03:29:39;;;;;;;11.60;9.02;;;;;;;7.53;99.96;100561.63;5020522;28;20542;-74
2023/03/24 03:32:09;;;;;;;11.50;9.32;;;;;;;7.50;100.00;100561.88;5032046;28;20071;-74
2023/03/24 03:34:53;;;;;;;14.60;9.52;;;;;;;7.46;100.00;100569.06;5027880;28;20066;-74
2023/03/24 03:37:29;;;;;;;11.95;8.65;;;;;;;7.40;100.00;100563.53;5023891;28;20044;-74
2023/03/24 03:39:58;;;;;;;12.70;9.50;;;;;;;7.36;100.00;100562.97;5033237;28;20441;-73
2023/03/24 03:42:24;;;;;;;17.90;9.10;;;;;;;7.36;100.00;100560.38;5021492;28;20030;-74
2023/03/24 03:44:50;;;;;;;12.63;8.55;;;;;;;7.41;100.00;100560.84;5050081;28;20370;-74
2023/03/24 03:47:17;;;;;;;15.25;8.15;;;;;;;7.51;100.00;100568.72;5028925;28;20386;-73
2023/03/24 03:49:44;;;;;;;15.50;9.35;;;;;;;7.60;99.85;100560.16;5021816;28;20072;-73
2023/03/24 03:52:11;;;;;;;11.25;8.80;;;;;;;7.57;99.60;100561.22;5026341;28;20039;-73
2023/03/24 03:54:38;;;;;;;11.68;8.77;;;;;;;7.54;99.98;100569.28;5027581;28;20034;-73
2023/03/24 03:57:03;;;;;;;14.18;9.18;;;;;;;7.54;100.00;100568.47;5027227;28;20033;-73
2023/03/24 03:59:33;;;;;;;12.30;8.73;;;;;;;7.54;100.00;100569.28;5025796;28;20033;-73
2023/03/24 04:02:20;;;;;;;15.07;9.68;;;;;;;7.52;100.00;100566.00;5028799;28;20041;-73
2023/03/24 04:04:58;;;;;;;11.65;8.55;;;;;;;7.52;100.00;100568.59;5019136;28;20091;-73
2023/03/24 04:07:31;;;;;;;11.70;8.57;;;;;;;7.52;100.00;100558.22;5027861;28;20044;-72
2023/03/24 04:10:22;;;;;;;14.13;8.40;;;;;;;7.57;100.00;100569.00;5020965;28;20079;-73
2023/03/24 04:13:25;;;;;;;14.25;8.60;;;;;;;7.57;100.00;100563.00;5017209;28;20049;-73
2023/03/24 04:15:57;;;;;;;13.95;9.32;;;;;;;7.56;100.00;100566.56;5022314;28;20494;-73
2023/03/24 04:18:51;;;;;;;11.23;8.40;;;;;;;7.54;100.00;100565.88;5022753;28;20471;-72
2023/03/24 04:21:35;;;;;;;14.55;8.45;;;;;;;7.54;100.00;100563.28;5027311;28;20033;-74
2023/03/24 04:24:09;;;;;;;11.65;8.75;;;;;;;7.61;100.00;100556.63;5019481;28;20217;-73
2023/03/24 04:26:53;;;;;;;11.27;6.93;;;;;;;7.79;100.00;100562.09;5022792;28;20477;-73
2023/03/24 04:29:51;;;;;;;9.50;6.57;;;;;;;8.09;98.57;100557.00;5018423;28;20037;-72
2023/03/24 04:32:26;;;;;;;9.63;6.65;;;;;;;8.25;97.18;100557.38;5021157;28;20390;-72
2023/03/24 04:35:00;;;;;;;10.70;5.93;;;;;;;8.42;96.04;100552.59;5026857;28;20299;-73
2023/03/24 04:37:36;;;;;;;8.57;6.05;;;;;;;8.45;95.46;100557.53;5032130;28;20098;-73
2023/03/24 04:40:07;;;;;;;9.45;6.55;;;;;;;8.37;95.88;100554.75;5027413;28;20033;-73
2023/03/24 04:42:45;;;;;;;9.10;5.70;;;;;;;8.34;96.17;100553.25;5010713;28;20029;-73
2023/03/24 04:45:12;;;;;;;9.93;6.50;;;;;;;8.32;96.45;100552.50;5028850;28;20080;-73
2023/03/24 04:47:43;;;;;;;13.60;6.88;;;;;;;8.25;97.21;100546.19;5020472;28;20029;-73
2023/03/24 04:50:11;;;;;;;11.43;7.50;;;;;;;8.21;98.10;100550.81;5016128;28;20029;-72
2023/03/24 04:52:41;;;;;;;11.57;6.82;;;;;;;8.14;98.54;100544.47;5029221;28;20489;-72
2023/03/24 04:55:25;;;;;;;10.93;7.30;;;;;;;8.11;99.24;100555.09;5021551;28;20033;-73
2023/03/24 04:57:51;;;;;;;10.73;8.07;;;;;;;8.09;99.65;100548.38;5028167;28;20041;-73
2023/03/24 05:00:17;;;;;;;11.15;8.02;;;;;;;8.06;100.00;100549.47;5016348;28;20395;-73
2023/03/24 05:02:44;;;;;;;8.10;6.88;;;;;;;8.02;100.00;100550.69;5022646;28;20068;-73
2023/03/24 05:05:10;;;;;;;9.90;7.78;;;;;;;7.95;100.00;100542.59;5030004;28;20041;-73
2023/03/24 05:07:35;;;;;;;11.75;7.93;;;;;;;7.92;100.00;100545.44;5023214;28;20541;-73
2023/03/24 05:10:01;;;;;;;13.93;8.30;;;;;;;7.96;100.00;100551.19;5023028;28;20065;-73
2023/03/24 05:12:26;;;;;;;14.85;8.45;;;;;;;7.99;100.00;100549.19;5024394;28;20822;-73
2023/03/24 05:14:52;;;;;;;10.20;7.70;;;;;;;8.05;100.00;100549.59;5012826;28;20033;-73
2023/03/24 05:17:17;;;;;;;12.10;8.15;;;;;;;8.08;100.00;100549.34;5012324;28;20041;-73
2023/03/24 05:19:43;;;;;;;13.45;9.35;;;;;;;8.09;100.00;100551.00;5016070;28;20077;-73
2023/03/24 05:22:08;;;;;;;13.32;8.98;;;;;;;8.09;100.00;100546.63;5011249;28;20148;-73
2023/03/24 05:24:34;;;;;;;10.30;7.57;;;;;;;8.07;100.00;100548.50;5011252;28;20545;-73
2023/03/24 05:26:59;;;;;;;13.93;9.80;;;;;;;8.08;100.00;100550.16;5053408;28;20040;-73
2023/03/24 05:29:25;;;;;;;14.52;10.15;;;;;;;8.08;100.00;100554.53;5024773;28;20083;-73
2023/03/24 05:31:50;;;;;;;12.23;9.48;;;;;;;8.07;100.00;100558.06;5026199;28;20044;-73
2023/03/24 05:34:16;;;;;;;11.07;8.30;;;;;;;8.08;100.00;100557.13;5027398;28;20419;-73
2023/03/24 05:36:41;;;;;;;13.60;9.07;;;;;;;8.09;100.00;100569.16;5031335;28;20075;-74
2023/03/24 05:39:06;;;;;;;13.40;9.50;;;;;;;8.10;100.00;100565.59;5031492;28;20041;-73
2023/03/24 05:41:32;;;;;;;12.13;9.35;;;;;;;8.07;100.00;100569.28;5033762;28;20039;-73
2023/03/24 05:43:57;;;;;;;13.15;9.65;;;;;;;8.06;100.00;100572.00;5024152;28;20040;-72
2023/03/24 05:46:23;;;;;;;11.90;9.52;;;;;;;8.09;100.00;100569.97;5021989;28;20557;-73
2023/03/24 05:48:48;;;;;;;12.90;8.85;;;;;;;8.14;100.00;100573.03;5016535;28;20045;-72
2023/03/24 05:51:14;;;;;;;12.40;9.32;;;;;;;8.26;100.00;100572.00;5022201;28;20040;-73
2023/03/24 05:53:39;;;;;;;13.50;9.27;;;;;;;8.23;100.00;100574.88;5019606;28;20045;-75
2023/03/24 05:56:10;;;;;;;14.23;10.45;;;;;;;8.20;100.00;100579.47;5013865;28;20389;-75
2023/03/24 05:58:38;;;;;;;13.88;9.20;;;;;;;8.19;100.00;100581.25;5030785;28;20086;-74
2023/03/24 06:01:09;;;;;;;13.30;9.27;;;;;;;8.19;100.00;100578.66;5016443;28;20038;-74
2023/03/24 06:03:37;;;;;;;12.15;8.90;;;;;;;8.26;100.00;100579.81;5018201;28;20707;-74
2023/03/24 06:06:05;;;;;;;11.73;9.20;;;;;;;8.32;100.00;100578.47;5017797;28;20099;-74
2023/03/24 06:08:32;;;;;;;13.20;9.77;;;;;;;8.32;100.00;100583.66;5018930;28;20037;-74
2023/03/24 06:11:02;;;;;;;17.98;10.23;;;;;;;8.37;100.00;100578.13;5019366;28;20151;-75
2023/03/24 06:13:29;;;;;;;13.30;9.48;;;;;;;8.47;100.00;100581.59;5019597;28;20032;-74
2023/03/24 06:15:57;;;;;;;13.82;10.75;;;;;;;8.59;99.19;100576.19;5030901;28;20026;-74
2023/03/24 06:18:25;;;;;;;10.85;9.10;;;;;;;8.72;98.49;100570.78;5023746;28;20116;-74
2023/03/24 06:20:55;;;;;;;15.73;8.85;;;;;;;8.88;97.42;100571.13;5028385;28;20500;-74
2023/03/24 06:23:26;;;;;;;18.52;10.50;;;;;;;9.06;96.74;100578.28;5027079;28;20052;-75
2023/03/24 06:25:52;;;;;;;16.42;10.30;;;;;;;9.22;95.88;100576.03;5022295;28;20756;-75
2023/03/24 06:28:18;;;;;;;14.68;10.07;;;;;;;9.42;95.07;100574.28;5023194;28;20029;-75
2023/03/24 06:30:45;;;;;;;19.88;10.30;;;;;;;9.56;94.54;100566.91;5023747;28;20082;-75
2023/03/24 06:33:12;;;;;;;11.75;8.15;;;;;;;9.77;93.52;100571.16;5023629;28;20120;-75
2023/03/24 06:35:38;;;;;;;13.85;6.18;;;;;;;10.08;91.36;100569.22;5018138;28;20060;-74
2023/03/24 06:38:04;;;;;;;13.38;5.55;;;;;;;10.38;88.68;100569.09;5013903;28;20390;-75
2023/03/24 06:40:30;;;;;;;8.60;5.15;;;;;;;10.59;87.76;100567.09;5028797;28;20043;-75
2023/03/24 06:42:55;;;;;;;9.35;6.03;;;;;;;10.81;86.33;100565.94;5028509;28;20030;-75
2023/03/24 06:45:21;;;;;;;10.88;5.78;;;;;;;11.04;85.24;100570.75;5025918;28;20029;-75
2023/03/24 06:47:46;;;;;;;8.00;5.25;;;;;;;11.24;84.56;100559.25;5030096;28;20129;-75
2023/03/24 06:50:12;;;;;;;9.95;5.15;;;;;;;11.50;84.05;100567.16;5028798;28;20049;-75
2023/03/24 06:52:37;;;;;;;9.80;5.57;;;;;;;11.75;82.62;100570.84;5021995;28;20726;-75
2023/03/24 06:55:03;;;;;;;12.52;5.05;;;;;;;11.79;81.75;100572.22;5018486;28;20052;-75
2023/03/24 06:57:29;;;;;;;7.82;4.25;;;;;;;11.88;81.37;100571.31;5021390;28;20030;-75
2023/03/24 06:59:55;;;;;;;8.43;4.97;;;;;;;12.13;81.46;100573.16;5019424;28;20033;-75
2023/03/24 07:02:21;;;;;;;10.88;5.50;;;;;;;12.20;80.87;100576.81;5026737;28;20037;-75
2023/03/24 07:04:47;;;;;;;13.13;5.50;;;;;;;12.10;80.71;100576.06;5022289;28;20046;-75
2023/03/24 07:07:13;;;;;;;8.63;5.70;;;;;;;12.18;80.36;100583.97;5024452;28;20083;-75
2023/03/24 07:09:39;;;;;;;13.75;6.78;;;;;;;12.31;80.32;100588.78;5028653;28;20028;-75
2023/03/24 07:12:05;;;;;;;9.85;5.97;;;;;;;12.41;79.71;100588.69;5021203;28;20061;-75
2023/03/24 07:14:31;;;;;;;11.98;5.38;;;;;;;12.40;79.70;100598.31;5021899;28;20475;-75
2023/03/24 07:16:57;;;;;;;16.25;4.78;;;;;;;12.41;78.84;100599.13;5022445;28;20040;-75
2023/03/24 07:19:23;;;;;;;8.63;4.90;;;;;;;12.57;78.42;100602.69;5019881;28;20139;-75
2023/03/24 07:21:49;;;;;;;14.80;5.80;;;;;;;12.79;77.72;100601.31;5019280;28;20037;-75
2023/03/24 07:24:17;;;;;;;17.60;6.00;;;;;;;12.98;76.38;100607.31;5023812;28;20056;-75
2023/03/24 07:26:43;;;;;;;16.55;6.78;;;;;;;13.10;76.17;100613.91;5022720;28;20048;-75
2023/03/24 07:29:09;;;;;;;24.85;8.45;;;;;;;13.21;75.49;100604.00;5027225;28;20037;-75
2023/03/24 07:31:36;;;;;;;16.58;7.80;;;;;;;13.39;75.22;100609.13;5018635;28;20025;-75
2023/03/24 07:34:04;;;;;;;13.00;6.72;;;;;;;13.41;74.47;100604.53;5026613;28;20434;-76
2023/03/24 07:36:30;;;;;;;14.63;7.28;;;;;;;13.37;73.87;100608.47;5019524;28;20481;-75
2023/03/24 07:38:55;;;;;;;17.60;5.85;;;;;;;13.41;74.12;100601.94;5020720;28;20029;-76
2023/03/24 07:41:21;;;;;;;15.70;6.80;;;;;;;13.68;73.90;100600.84;5027408;28;20842;-75
2023/03/24 07:43:46;;;;;;;13.98;6.43;;;;;;;13.72;72.85;100602.16;5013390;28;20037;-76
2023/03/24 07:46:12;;;;;;;9.48;5.65;;;;;;;13.82;72.33;100596.75;5014506;28;20124;-76
2023/03/24 07:48:37;;;;;;;15.75;5.53;;;;;;;13.95;71.58;100602.34;5019989;28;20588;-75
2023/03/24 07:51:02;;;;;;;11.80;5.88;;;;;;;14.06;70.99;100596.78;5018584;28;20033;-75
2023/03/24 07:53:28;;;;;;;16.75;6.78;;;;;;;14.21;70.37;100597.75;5019204;28;20034;-75
2023/03/24 07:55:53;;;;;;;12.20;6.03;;;;;;;14.34;70.58;100596.44;5019223;28;20085;-75
2023/03/24 07:58:19;;;;;;;8.30;5.90;;;;;;;14.51;70.63;100593.66;5018851;28;20083;-75
2023/03/24 08:00:44;;;;;;;12.10;5.80;;;;;;;14.60;70.82;100587.41;5018773;28;20026;-75
2023/03/24 08:03:13;;;;;;;14.38;7.53;;;;;;;14.84;70.06;100594.38;5017660;28;20093;-75
2023/03/24 08:05:40;;;;;;;9.50;8.18;;;;;;;14.93;70.02;100588.13;5018475;28;20100;-75
2023/03/24 08:08:06;;;;;;;10.20;8.35;;;;;;;15.06;70.09;100584.16;5013974;28;20028;-75
2023/03/24 08:10:32;;;;;;;12.43;7.65;;;;;;;15.17;69.22;100592.44;5018702;28;20043;-75
2023/03/24 08:12:58;;;;;;;6.63;5.53;;;;;;;15.17;69.57;100581.94;5016670;28;20506;-75
2023/03/24 08:15:25;;;;;;;6.60;5.50;;;;;;;15.30;68.82;100578.78;5016902;28;20040;-75
2023/03/24 08:17:52;;;;;;;8.40;5.85;;;;;;;15.79;68.23;100573.25;5030209;28;20056;-75
2023/03/24 08:20:20;;;;;;;9.05;6.10;;;;;;;16.13;67.86;100581.47;5026194;28;20113;-70
2023/03/24 08:22:48;;;;;;;7.10;5.55;;;;;;;16.34;67.31;100585.25;5021939;28;20033;-71
2023/03/24 08:25:16;;;;;;;9.88;6.32;;;;;;;16.59;66.51;100584.81;5017568;28;20029;-70
2023/03/24 08:27:45;;;;;;;5.40;4.78;;;;;;;16.54;66.54;100568.75;5019902;28;20029;-71
2023/03/24 08:30:15;;;;;;;6.55;5.25;;;;;;;16.04;64.87;100572.06;5020011;28;20455;-71
2023/03/24 08:32:46;;;;;;;10.52;5.43;;;;;;;16.02;65.01;100587.19;5017135;28;20096;-70
2023/03/24 08:35:14;;;;;;;8.30;4.90;;;;;;;16.29;64.87;100590.22;5016564;28;20128;-70
2023/03/24 08:37:43;;;;;;;6.70;4.30;;;;;;;16.49;65.07;100586.09;5018328;28;20030;-72
2023/03/24 08:40:11;;;;;;;8.40;5.03;;;;;;;16.86;65.35;100587.84;5027404;28;20562;-72
2023/03/24 08:42:36;;;;;;;7.88;5.75;;;;;;;17.61;64.43;100582.22;5037167;28;20127;-71
2023/03/24 08:45:02;;;;;;;6.72;5.75;;;;;;;17.89;63.60;100577.06;5020442;28;20025;-71
2023/03/24 08:47:28;;;;;;;7.30;5.60;;;;;;;17.77;64.12;100582.03;5022251;28;20032;-71
2023/03/24 08:49:56;;;;;;;10.13;5.80;;;;;;;17.75;63.49;100578.78;5018677;28;20124;-71
2023/03/24 08:52:23;;;;;;;7.47;6.47;;;;;;;17.73;62.98;100580.78;5022406;28;20072;-71
2023/03/24 08:54:49;;;;;;;6.78;5.35;;;;;;;18.44;61.36;100576.25;5019192;28;20029;-71
2023/03/24 08:57:16;;;;;;;5.93;4.65;;;;;;;19.07;58.93;100570.94;5020087;28;20040;-71
2023/03/24 08:59:41;;;;;;;7.22;5.80;;;;;;;19.20;58.97;100577.09;5021187;28;20033;-71
2023/03/24 09:02:10;;;;;;;7.20;5.57;;;;;;;18.81;60.34;100579.56;5021956;28;20045;-71
2023/03/24 09:04:36;;;;;;;6.03;5.15;;;;;;;18.56;60.36;100573.91;5027969;28;20049;-71
2023/03/24 09:07:03;;;;;;;6.07;4.85;;;;;;;18.30;61.13;100577.19;5016715;28;20030;-71
2023/03/24 09:09:29;;;;;;;5.22;4.72;;;;;;;17.55;63.24;100575.91;5031900;28;20029;-71
2023/03/24 09:11:54;;;;;;;7.53;4.80;;;;;;;17.63;62.95;100571.50;5022160;28;20033;-71
2023/03/24 09:14:21;;;;;;;8.65;5.03;;;;;;;17.99;63.19;100576.72;5025303;28;20033;-71
2023/03/24 09:16:48;;;;;;;7.07;5.07;;;;;;;17.65;64.48;100574.78;5020138;28;20124;-71
2023/03/24 09:19:15;;;;;;;7.50;4.72;;;;;;;17.24;65.81;100572.72;5017970;28;20040;-71
2023/03/24 09:21:44;;;;;;;6.35;5.45;;;;;;;16.94;66.17;100568.53;5020592;28;20035;-71
2023/03/24 09:24:09;;;;;;;10.48;4.03;;;;;;;16.74;67.12;100576.16;5015797;28;20347;-71
2023/03/24 09:26:35;;;;;;;5.65;4.78;;;;;;;16.54;66.41;100578.50;5018692;28;20036;-71
2023/03/24 09:29:01;;;;;;;5.63;4.68;;;;;;;15.97;67.55;100571.13;5018730;28;20049;-72
2023/03/24 09:31:26;;;;;;;5.50;4.90;;;;;;;15.96;67.90;100569.50;5017888;28;20034;-71
2023/03/24 09:33:52;;;;;;;5.68;4.30;;;;;;;16.29;68.04;100569.19;5016310;28;20403;-71
2023/03/24 09:36:17;;;;;;;5.05;4.55;;;;;;;16.51;67.71;100571.78;5012911;28;20097;-71
2023/03/24 09:38:43;;;;;;;9.40;5.30;;;;;;;16.31;67.24;100565.41;5015776;28;20490;-71
2023/03/24 09:41:29;;;;;;;8.98;5.28;;;;;;;15.87;68.72;100576.63;5017191;28;20470;-71
2023/03/24 09:44:00;;;;;;;5.78;5.28;;;;;;;15.95;69.54;100575.75;5015992;28;20026;-71
2023/03/24 09:46:35;;;;;;;8.55;5.30;;;;;;;16.16;69.46;100570.63;5025223;28;20029;-71
2023/03/24 09:49:02;;;;;;;8.48;5.55;;;;;;;16.32;69.19;100574.09;5020638;28;20451;-72
2023/03/24 09:51:35;;;;;;;9.05;5.85;;;;;;;16.38;69.09;100576.00;5013260;28;20072;-71
2023/03/24 09:54:06;;;;;;;7.22;6.32;;;;;;;16.42;70.08;100575.47;5013926;28;20025;-72
2023/03/24 09:56:35;;;;;;;9.60;7.05;;;;;;;16.48;69.71;100574.75;5019920;28;20037;-71
2023/03/24 09:59:05;;;;;;;9.52;6.85;;;;;;;16.39;70.58;100560.06;5029600;28;20029;-72
2023/03/24 10:01:33;;;;;;;8.20;6.38;;;;;;;16.41;71.36;100567.78;5028187;28;20076;-74
2023/03/24 10:03:59;;;;;;;8.80;7.22;;;;;;;16.41;70.97;100558.06;5040937;28;20037;-71
2023/03/24 10:06:34;;;;;;;9.18;7.63;;;;;;;16.53;70.70;100567.16;5029021;28;20033;-72
2023/03/24 10:09:18;;;;;;;10.30;7.40;;;;;;;16.55;69.80;100557.25;5035558;28;20025;-72
2023/03/24 10:12:07;;;;;;;8.15;7.28;;;;;;;16.59;70.90;100555.88;5030728;28;20033;-72
2023/03/24 10:15:00;;;;;;;8.63;7.75;;;;;;;16.74;71.78;100566.44;5028815;28;20034;-71
2023/03/24 10:17:32;;;;;;;9.45;7.55;;;;;;;16.78;71.35;100556.38;5028374;28;20352;-71
2023/03/24 10:20:10;;;;;;;8.65;7.25;;;;;;;16.90;70.56;100568.88;5029376;28;20451;-72
2023/03/24 10:22:44;;;;;;;7.78;6.97;;;;;;;16.97;71.14;100562.91;5028829;28;20038;-71
2023/03/24 10:25:36;;;;;;;11.50;7.65;;;;;;;17.12;70.33;100556.59;5028415;28;20053;-72
2023/03/24 10:28:26;;;;;;;10.50;7.57;;;;;;;17.22;70.62;100551.03;5029379;28;20045;-72
2023/03/24 10:30:55;;;;;;;9.90;8.05;;;;;;;17.37;70.54;100554.44;5028058;28;20451;-71
2023/03/24 10:33:21;;;;;;;7.43;5.60;;;;;;;17.26;70.07;100557.56;5024786;28;20036;-72
2023/03/24 10:36:04;;;;;;;7.05;5.63;;;;;;;17.08;68.04;100551.88;5017159;28;20041;-71
2023/03/24 10:38:30;;;;;;;6.50;5.28;;;;;;;17.03;69.28;100546.34;5024561;28;20060;-71
2023/03/24 10:40:56;;;;;;;5.22;4.72;;;;;;;17.14;69.59;100549.31;5028591;28;20083;-71
2023/03/24 10:43:22;;;;;;;6.82;5.65;;;;;;;17.14;69.63;100548.50;5028218;28;20061;-72
2023/03/24 10:45:54;;;;;;;9.15;5.60;;;;;;;17.16;68.80;100546.50;5029467;28;20028;-72
2023/03/24 10:48:44;;;;;;;5.35;4.22;;;;;;;17.20;68.30;100545.94;5032308;28;20030;-71
2023/03/24 10:51:15;;;;;;;6.72;3.58;;;;;;;17.28;67.96;100534.50;5023115;28;20489;-71
2023/03/24 10:53:41;;;;;;;4.93;3.30;;;;;;;17.37;67.06;100532.56;5024336;28;20133;-72
2023/03/24 10:56:07;;;;;;;6.95;3.22;;;;;;;17.31;66.37;100530.69;5030590;28;20049;-72
2023/03/24 10:58:42;;;;;;;6.68;3.40;;;;;;;17.28;66.12;100533.69;5031931;28;20040;-72
2023/03/24 11:01:29;;;;;;;4.30;3.17;;;;;;;17.33;65.48;100526.03;5027816;28;20031;-72
2023/03/24 11:04:05;;;;;;;4.15;2.95;;;;;;;17.29;65.91;100525.59;5028546;28;20402;-72
2023/03/24 11:06:32;;;;;;;4.75;2.55;;;;;;;17.44;65.79;100515.84;5032851;28;20041;-72
2023/03/24 11:09:41;;;;;;;4.82;2.08;;;;;;;17.64;63.83;100520.44;5030079;28;20046;-72
2023/03/24 11:12:30;;;;;;;2.67;2.10;;;;;;;17.64;63.76;100523.09;4992026;28;20124;-71
2023/03/24 11:15:12;;;;;;;4.07;2.38;;;;;;;17.66;64.38;100523.75;5028594;28;20034;-72
2023/03/24 11:17:37;;;;;;;2.97;1.73;;;;;;;17.67;63.13;100522.75;5033743;28;20029;-72
2023/03/24 11:20:18;;;;;;;6.72;1.80;;;;;;;17.67;61.10;100520.91;5023509;28;20041;-72
2023/03/24 11:22:55;;;;;;;3.42;2.13;;;;;;;17.93;61.56;100527.44;5020416;28;20037;-72
2023/03/24 11:25:25;;;;;;;5.22;2.03;;;;;;;18.11;61.96;100520.66;5019940;28;23362;-72
2023/03/24 11:27:56;;;;;;;3.65;2.05;;;;;;;18.02;60.97;100516.53;5012827;28;20033;-73
2023/03/24 11:30:22;;;;;;;6.72;2.90;;;;;;;18.03;61.16;100512.91;5023557;28;20091;-72
2023/03/24 11:32:48;;;;;;;5.30;2.25;;;;;;;18.02;61.54;100515.72;5029020;28;20029;-72
2023/03/24 11:35:17;;;;;;;3.95;2.40;;;;;;;17.83;62.39;100510.13;5032514;28;20041;-72
2023/03/24 11:37:45;;;;;;;4.03;2.15;;;;;;;17.75;62.82;100512.88;5017528;28;20414;-72
2023/03/24 11:40:20;;;;;;;4.28;1.90;;;;;;;17.61;61.45;100512.94;5019073;28;20553;-72